sensor_id;sensor_type;location;lat;lon;timestamp;P1;durP1;ratioP1;P2;durP2;ratioP2
60612;SDS011;46443;59.792;17.626;2023-04-24T00:01:54;1.38;;;1.20;;
60612;SDS011;46443;59.792;17.626;2023-04-24T00:04:20;1.15;;;1.05;;
60612;SDS011;46443;59.792;17.626;2023-04-24T00:06:46;1.83;;;1.25;;
60612;SDS011;46443;59.792;17.626;2023-04-24T00:09:14;1.20;;;1.10;;
60612;SDS011;46443;59.792;17.626;2023-04-24T00:11:40;1.20;;;1.13;;
60612;SDS011;46443;59.792;17.626;2023-04-24T00:14:07;1.30;;;1.20;;
60612;SDS011;46443;59.792;17.626;2023-04-24T00:16:33;1.20;;;1.10;;
60612;SDS011;46443;59.792;17.626;2023-04-24T00:18:59;1.52;;;1.40;;
60612;SDS011;46443;59.792;17.626;2023-04-24T00:21:25;1.55;;;1.20;;
60612;SDS011;46443;59.792;17.626;2023-04-24T00:23:52;3.30;;;1.42;;
60612;SDS011;46443;59.792;17.626;2023-04-24T00:26:18;1.40;;;1.30;;
60612;SDS011;46443;59.792;17.626;2023-04-24T00:28:44;1.77;;;1.30;;
60612;SDS011;46443;59.792;17.626;2023-04-24T00:31:10;2.20;;;1.50;;
60612;SDS011;46443;59.792;17.626;2023-04-24T00:33:36;1.50;;;1.40;;
60612;SDS011;46443;59.792;17.626;2023-04-24T00:36:03;1.50;;;1.40;;
60612;SDS011;46443;59.792;17.626;2023-04-24T00:38:29;2.03;;;1.40;;
60612;SDS011;46443;59.792;17.626;2023-04-24T00:40:55;2.35;;;1.50;;
60612;SDS011;46443;59.792;17.626;2023-04-24T00:43:21;2.17;;;1.60;;
60612;SDS011;46443;59.792;17.626;2023-04-24T00:45:47;3.22;;;1.73;;
60612;SDS011;46443;59.792;17.626;2023-04-24T00:48:13;2.33;;;1.67;;
60612;SDS011;46443;59.792;17.626;2023-04-24T00:50:40;3.70;;;2.20;;
60612;SDS011;46443;59.792;17.626;2023-04-24T00:53:06;3.83;;;2.10;;
60612;SDS011;46443;59.792;17.626;2023-04-24T00:55:32;3.70;;;1.98;;
60612;SDS011;46443;59.792;17.626;2023-04-24T00:57:58;4.20;;;2.05;;
60612;SDS011;46443;59.792;17.626;2023-04-24T01:00:25;3.20;;;2.08;;
60612;SDS011;46443;59.792;17.626;2023-04-24T01:02:51;3.85;;;2.20;;
60612;SDS011;46443;59.792;17.626;2023-04-24T01:05:18;5.32;;;2.30;;
60612;SDS011;46443;59.792;17.626;2023-04-24T01:07:44;5.57;;;2.67;;
60612;SDS011;46443;59.792;17.626;2023-04-24T01:10:13;4.55;;;2.45;;
60612;SDS011;46443;59.792;17.626;2023-04-24T01:12:39;5.03;;;2.53;;
60612;SDS011;46443;59.792;17.626;2023-04-24T01:15:05;5.43;;;2.60;;
60612;SDS011;46443;59.792;17.626;2023-04-24T01:17:32;4.82;;;2.40;;
60612;SDS011;46443;59.792;17.626;2023-04-24T01:19:59;4.97;;;2.60;;
60612;SDS011;46443;59.792;17.626;2023-04-24T01:22:26;5.70;;;2.67;;
60612;SDS011;46443;59.792;17.626;2023-04-24T01:24:52;5.18;;;2.42;;
60612;SDS011;46443;59.792;17.626;2023-04-24T01:27:18;5.82;;;2.80;;
60612;SDS011;46443;59.792;17.626;2023-04-24T01:29:45;5.07;;;2.78;;
60612;SDS011;46443;59.792;17.626;2023-04-24T01:32:12;5.75;;;2.85;;
60612;SDS011;46443;59.792;17.626;2023-04-24T01:34:39;5.00;;;2.88;;
60612;SDS011;46443;59.792;17.626;2023-04-24T01:37:05;4.38;;;2.58;;
60612;SDS011;46443;59.792;17.626;2023-04-24T01:39:32;4.63;;;2.58;;
60612;SDS011;46443;59.792;17.626;2023-04-24T01:41:59;5.75;;;3.20;;
60612;SDS011;46443;59.792;17.626;2023-04-24T01:44:26;5.03;;;2.70;;
60612;SDS011;46443;59.792;17.626;2023-04-24T01:46:53;6.40;;;3.00;;
60612;SDS011;46443;59.792;17.626;2023-04-24T01:49:20;6.05;;;2.78;;
60612;SDS011;46443;59.792;17.626;2023-04-24T01:51:46;4.15;;;2.60;;
60612;SDS011;46443;59.792;17.626;2023-04-24T01:54:12;5.13;;;2.80;;
60612;SDS011;46443;59.792;17.626;2023-04-24T01:56:42;5.18;;;2.80;;
60612;SDS011;46443;59.792;17.626;2023-04-24T01:59:09;6.03;;;2.78;;
60612;SDS011;46443;59.792;17.626;2023-04-24T02:01:35;5.05;;;2.90;;
60612;SDS011;46443;59.792;17.626;2023-04-24T02:04:02;6.18;;;3.13;;
60612;SDS011;46443;59.792;17.626;2023-04-24T02:06:28;4.97;;;2.65;;
60612;SDS011;46443;59.792;17.626;2023-04-24T02:08:56;4.63;;;2.60;;
60612;SDS011;46443;59.792;17.626;2023-04-24T02:11:22;5.25;;;2.50;;
60612;SDS011;46443;59.792;17.626;2023-04-24T02:13:48;5.32;;;2.60;;
60612;SDS011;46443;59.792;17.626;2023-04-24T02:16:15;4.43;;;2.42;;
60612;SDS011;46443;59.792;17.626;2023-04-24T02:18:41;4.60;;;2.60;;
60612;SDS011;46443;59.792;17.626;2023-04-24T02:21:07;5.05;;;2.60;;
60612;SDS011;46443;59.792;17.626;2023-04-24T02:23:33;5.90;;;2.78;;
60612;SDS011;46443;59.792;17.626;2023-04-24T02:25:59;5.50;;;2.55;;
60612;SDS011;46443;59.792;17.626;2023-04-24T02:28:25;5.00;;;2.42;;
60612;SDS011;46443;59.792;17.626;2023-04-24T02:30:52;4.55;;;2.40;;
60612;SDS011;46443;59.792;17.626;2023-04-24T02:33:18;5.72;;;2.40;;
60612;SDS011;46443;59.792;17.626;2023-04-24T02:35:44;4.35;;;2.47;;
60612;SDS011;46443;59.792;17.626;2023-04-24T02:38:10;5.30;;;2.60;;
60612;SDS011;46443;59.792;17.626;2023-04-24T02:40:36;4.97;;;2.55;;
60612;SDS011;46443;59.792;17.626;2023-04-24T02:43:02;5.35;;;2.28;;
60612;SDS011;46443;59.792;17.626;2023-04-24T02:45:29;4.25;;;2.10;;
60612;SDS011;46443;59.792;17.626;2023-04-24T02:47:55;4.40;;;2.33;;
60612;SDS011;46443;59.792;17.626;2023-04-24T02:50:21;3.95;;;2.40;;
60612;SDS011;46443;59.792;17.626;2023-04-24T02:52:47;4.50;;;2.22;;
60612;SDS011;46443;59.792;17.626;2023-04-24T02:55:13;4.63;;;2.50;;
60612;SDS011;46443;59.792;17.626;2023-04-24T02:57:39;4.00;;;2.10;;
60612;SDS011;46443;59.792;17.626;2023-04-24T03:00:05;4.47;;;2.33;;
60612;SDS011;46443;59.792;17.626;2023-04-24T03:02:32;4.10;;;2.20;;
60612;SDS011;46443;59.792;17.626;2023-04-24T03:04:59;4.00;;;2.00;;
60612;SDS011;46443;59.792;17.626;2023-04-24T03:07:25;3.28;;;1.90;;
60612;SDS011;46443;59.792;17.626;2023-04-24T03:09:51;3.78;;;2.25;;
60612;SDS011;46443;59.792;17.626;2023-04-24T03:12:17;5.38;;;2.38;;
60612;SDS011;46443;59.792;17.626;2023-04-24T03:14:43;3.33;;;2.00;;
60612;SDS011;46443;59.792;17.626;2023-04-24T03:17:09;5.30;;;2.08;;
60612;SDS011;46443;59.792;17.626;2023-04-24T03:19:35;3.25;;;2.08;;
60612;SDS011;46443;59.792;17.626;2023-04-24T03:22:02;3.88;;;2.45;;
60612;SDS011;46443;59.792;17.626;2023-04-24T03:24:29;3.58;;;2.20;;
60612;SDS011;46443;59.792;17.626;2023-04-24T03:26:55;3.70;;;2.17;;
60612;SDS011;46443;59.792;17.626;2023-04-24T03:29:21;3.50;;;2.10;;
60612;SDS011;46443;59.792;17.626;2023-04-24T03:31:48;4.07;;;2.22;;
60612;SDS011;46443;59.792;17.626;2023-04-24T03:34:14;4.20;;;2.42;;
60612;SDS011;46443;59.792;17.626;2023-04-24T03:36:40;6.57;;;3.10;;
60612;SDS011;46443;59.792;17.626;2023-04-24T03:39:06;4.28;;;2.58;;
60612;SDS011;46443;59.792;17.626;2023-04-24T03:41:32;5.13;;;2.80;;
60612;SDS011;46443;59.792;17.626;2023-04-24T03:43:58;5.10;;;2.33;;
60612;SDS011;46443;59.792;17.626;2023-04-24T03:46:25;5.53;;;2.75;;
60612;SDS011;46443;59.792;17.626;2023-04-24T03:48:51;4.65;;;2.72;;
60612;SDS011;46443;59.792;17.626;2023-04-24T03:51:17;5.43;;;2.97;;
60612;SDS011;46443;59.792;17.626;2023-04-24T03:53:43;4.25;;;2.67;;
60612;SDS011;46443;59.792;17.626;2023-04-24T03:56:09;6.03;;;3.00;;
60612;SDS011;46443;59.792;17.626;2023-04-24T03:58:35;4.78;;;2.72;;
60612;SDS011;46443;59.792;17.626;2023-04-24T04:01:01;4.90;;;2.90;;
60612;SDS011;46443;59.792;17.626;2023-04-24T04:03:27;5.60;;;2.92;;
60612;SDS011;46443;59.792;17.626;2023-04-24T04:05:54;5.95;;;2.97;;
60612;SDS011;46443;59.792;17.626;2023-04-24T04:08:20;6.00;;;2.63;;
60612;SDS011;46443;59.792;17.626;2023-04-24T04:10:46;4.35;;;2.67;;
60612;SDS011;46443;59.792;17.626;2023-04-24T04:13:12;5.90;;;2.80;;
60612;SDS011;46443;59.792;17.626;2023-04-24T04:15:38;4.90;;;2.72;;
60612;SDS011;46443;59.792;17.626;2023-04-24T04:18:05;4.10;;;2.67;;
60612;SDS011;46443;59.792;17.626;2023-04-24T04:20:31;4.80;;;2.92;;
60612;SDS011;46443;59.792;17.626;2023-04-24T04:22:57;4.38;;;2.67;;
60612;SDS011;46443;59.792;17.626;2023-04-24T04:25:23;3.88;;;2.33;;
60612;SDS011;46443;59.792;17.626;2023-04-24T04:27:49;4.35;;;2.80;;
60612;SDS011;46443;59.792;17.626;2023-04-24T04:30:16;4.88;;;2.72;;
60612;SDS011;46443;59.792;17.626;2023-04-24T04:32:43;4.30;;;2.60;;
60612;SDS011;46443;59.792;17.626;2023-04-24T04:35:09;4.85;;;2.97;;
60612;SDS011;46443;59.792;17.626;2023-04-24T04:37:36;6.13;;;2.78;;
60612;SDS011;46443;59.792;17.626;2023-04-24T04:40:02;4.88;;;3.05;;
60612;SDS011;46443;59.792;17.626;2023-04-24T04:42:31;4.40;;;2.60;;
60612;SDS011;46443;59.792;17.626;2023-04-24T04:44:59;6.78;;;3.60;;
60612;SDS011;46443;59.792;17.626;2023-04-24T04:47:25;5.57;;;3.03;;
60612;SDS011;46443;59.792;17.626;2023-04-24T04:49:53;7.10;;;3.30;;
60612;SDS011;46443;59.792;17.626;2023-04-24T04:52:19;6.88;;;3.53;;
60612;SDS011;46443;59.792;17.626;2023-04-24T04:57:15;5.50;;;3.53;;
60612;SDS011;46443;59.792;17.626;2023-04-24T04:59:41;5.70;;;3.38;;
60612;SDS011;46443;59.792;17.626;2023-04-24T05:02:08;7.22;;;3.83;;
60612;SDS011;46443;59.792;17.626;2023-04-24T05:04:34;7.40;;;3.38;;
60612;SDS011;46443;59.792;17.626;2023-04-24T05:07:00;5.45;;;3.13;;
60612;SDS011;46443;59.792;17.626;2023-04-24T05:09:26;7.32;;;4.03;;
60612;SDS011;46443;59.792;17.626;2023-04-24T05:11:54;7.47;;;4.00;;
60612;SDS011;46443;59.792;17.626;2023-04-24T05:14:21;7.05;;;4.10;;
60612;SDS011;46443;59.792;17.626;2023-04-24T05:16:47;8.65;;;4.63;;
60612;SDS011;46443;59.792;17.626;2023-04-24T05:19:14;8.43;;;4.22;;
60612;SDS011;46443;59.792;17.626;2023-04-24T05:21:40;6.45;;;3.95;;
60612;SDS011;46443;59.792;17.626;2023-04-24T05:24:06;7.45;;;3.78;;
60612;SDS011;46443;59.792;17.626;2023-04-24T05:26:33;6.85;;;3.40;;
60612;SDS011;46443;59.792;17.626;2023-04-24T05:28:59;7.82;;;3.88;;
60612;SDS011;46443;59.792;17.626;2023-04-24T05:31:25;8.90;;;3.88;;
60612;SDS011;46443;59.792;17.626;2023-04-24T05:33:51;7.53;;;4.10;;
60612;SDS011;46443;59.792;17.626;2023-04-24T05:36:17;7.25;;;3.90;;
60612;SDS011;46443;59.792;17.626;2023-04-24T05:38:43;7.90;;;3.75;;
60612;SDS011;46443;59.792;17.626;2023-04-24T05:41:09;7.03;;;3.70;;
60612;SDS011;46443;59.792;17.626;2023-04-24T05:43:35;7.82;;;4.25;;
60612;SDS011;46443;59.792;17.626;2023-04-24T05:46:01;6.60;;;3.90;;
60612;SDS011;46443;59.792;17.626;2023-04-24T05:48:27;8.77;;;4.20;;
60612;SDS011;46443;59.792;17.626;2023-04-24T05:50:53;6.82;;;3.30;;
60612;SDS011;46443;59.792;17.626;2023-04-24T05:53:21;9.00;;;4.18;;
60612;SDS011;46443;59.792;17.626;2023-04-24T05:55:47;6.88;;;3.90;;
60612;SDS011;46443;59.792;17.626;2023-04-24T05:58:13;7.32;;;4.18;;
60612;SDS011;46443;59.792;17.626;2023-04-24T06:00:40;7.57;;;3.65;;
60612;SDS011;46443;59.792;17.626;2023-04-24T06:03:07;7.15;;;3.75;;
60612;SDS011;46443;59.792;17.626;2023-04-24T06:05:34;8.25;;;4.78;;
60612;SDS011;46443;59.792;17.626;2023-04-24T06:08:00;8.63;;;4.35;;
60612;SDS011;46443;59.792;17.626;2023-04-24T06:10:26;8.35;;;4.70;;
60612;SDS011;46443;59.792;17.626;2023-04-24T06:12:52;7.57;;;3.72;;
60612;SDS011;46443;59.792;17.626;2023-04-24T06:15:21;8.48;;;4.65;;
60612;SDS011;46443;59.792;17.626;2023-04-24T06:17:47;7.72;;;4.18;;
60612;SDS011;46443;59.792;17.626;2023-04-24T06:20:13;9.35;;;4.68;;
60612;SDS011;46443;59.792;17.626;2023-04-24T06:22:39;7.35;;;4.40;;
60612;SDS011;46443;59.792;17.626;2023-04-24T06:25:05;7.65;;;4.10;;
60612;SDS011;46443;59.792;17.626;2023-04-24T06:27:32;8.38;;;4.18;;
60612;SDS011;46443;59.792;17.626;2023-04-24T06:29:58;6.45;;;3.45;;
60612;SDS011;46443;59.792;17.626;2023-04-24T06:32:24;8.40;;;3.65;;
60612;SDS011;46443;59.792;17.626;2023-04-24T06:34:52;5.45;;;3.20;;
60612;SDS011;46443;59.792;17.626;2023-04-24T06:37:18;6.57;;;3.60;;
60612;SDS011;46443;59.792;17.626;2023-04-24T06:39:45;5.97;;;3.25;;
60612;SDS011;46443;59.792;17.626;2023-04-24T06:42:11;6.70;;;3.05;;
60612;SDS011;46443;59.792;17.626;2023-04-24T06:44:37;7.05;;;3.67;;
60612;SDS011;46443;59.792;17.626;2023-04-24T06:47:09;6.07;;;3.50;;
60612;SDS011;46443;59.792;17.626;2023-04-24T06:49:36;6.78;;;3.20;;
60612;SDS011;46443;59.792;17.626;2023-04-24T06:52:02;5.35;;;3.28;;
60612;SDS011;46443;59.792;17.626;2023-04-24T06:54:29;7.43;;;3.60;;
60612;SDS011;46443;59.792;17.626;2023-04-24T06:56:55;6.32;;;3.40;;
60612;SDS011;46443;59.792;17.626;2023-04-24T06:59:22;6.00;;;3.10;;
60612;SDS011;46443;59.792;17.626;2023-04-24T07:01:49;5.13;;;3.08;;
60612;SDS011;46443;59.792;17.626;2023-04-24T07:04:16;5.25;;;2.80;;
60612;SDS011;46443;59.792;17.626;2023-04-24T07:06:42;5.90;;;3.10;;
60612;SDS011;46443;59.792;17.626;2023-04-24T07:09:08;5.38;;;2.67;;
60612;SDS011;46443;59.792;17.626;2023-04-24T07:11:35;5.35;;;3.03;;
60612;SDS011;46443;59.792;17.626;2023-04-24T07:14:02;4.30;;;2.45;;
60612;SDS011;46443;59.792;17.626;2023-04-24T07:16:29;4.57;;;2.60;;
60612;SDS011;46443;59.792;17.626;2023-04-24T07:18:55;6.45;;;2.88;;
60612;SDS011;46443;59.792;17.626;2023-04-24T07:21:21;4.72;;;2.58;;
60612;SDS011;46443;59.792;17.626;2023-04-24T07:23:47;5.25;;;2.80;;
60612;SDS011;46443;59.792;17.626;2023-04-24T07:26:13;4.82;;;2.55;;
60612;SDS011;46443;59.792;17.626;2023-04-24T07:28:40;5.03;;;2.80;;
60612;SDS011;46443;59.792;17.626;2023-04-24T07:31:08;6.72;;;3.15;;
60612;SDS011;46443;59.792;17.626;2023-04-24T07:33:34;4.97;;;2.83;;
60612;SDS011;46443;59.792;17.626;2023-04-24T07:36:01;4.15;;;2.70;;
60612;SDS011;46443;59.792;17.626;2023-04-24T07:38:29;5.00;;;2.83;;
60612;SDS011;46443;59.792;17.626;2023-04-24T07:40:55;7.03;;;3.15;;
60612;SDS011;46443;59.792;17.626;2023-04-24T07:43:21;6.32;;;2.75;;
60612;SDS011;46443;59.792;17.626;2023-04-24T07:45:48;5.80;;;3.20;;
60612;SDS011;46443;59.792;17.626;2023-04-24T07:48:15;4.68;;;2.60;;
60612;SDS011;46443;59.792;17.626;2023-04-24T07:50:41;4.07;;;2.75;;
60612;SDS011;46443;59.792;17.626;2023-04-24T07:53:07;6.15;;;2.90;;
60612;SDS011;46443;59.792;17.626;2023-04-24T07:55:33;5.85;;;2.90;;
60612;SDS011;46443;59.792;17.626;2023-04-24T07:58:00;3.58;;;2.30;;
60612;SDS011;46443;59.792;17.626;2023-04-24T08:00:26;5.38;;;2.33;;
60612;SDS011;46443;59.792;17.626;2023-04-24T08:02:52;5.47;;;2.80;;
60612;SDS011;46443;59.792;17.626;2023-04-24T08:05:18;5.40;;;2.80;;
60612;SDS011;46443;59.792;17.626;2023-04-24T08:07:45;4.63;;;2.33;;
60612;SDS011;46443;59.792;17.626;2023-04-24T08:10:13;5.05;;;2.80;;
60612;SDS011;46443;59.792;17.626;2023-04-24T08:12:40;4.30;;;2.63;;
60612;SDS011;46443;59.792;17.626;2023-04-24T08:15:06;4.75;;;2.80;;
60612;SDS011;46443;59.792;17.626;2023-04-24T08:17:33;5.28;;;2.53;;
60612;SDS011;46443;59.792;17.626;2023-04-24T08:19:59;3.72;;;2.40;;
60612;SDS011;46443;59.792;17.626;2023-04-24T08:22:28;5.43;;;2.75;;
60612;SDS011;46443;59.792;17.626;2023-04-24T08:24:54;4.18;;;2.55;;
60612;SDS011;46443;59.792;17.626;2023-04-24T08:27:22;4.25;;;3.13;;
60612;SDS011;46443;59.792;17.626;2023-04-24T08:29:48;5.40;;;2.83;;
60612;SDS011;46443;59.792;17.626;2023-04-24T08:32:14;5.60;;;2.95;;
60612;SDS011;46443;59.792;17.626;2023-04-24T08:34:40;4.70;;;2.70;;
60612;SDS011;46443;59.792;17.626;2023-04-24T08:37:06;4.95;;;2.70;;
60612;SDS011;46443;59.792;17.626;2023-04-24T08:39:32;4.50;;;2.60;;
60612;SDS011;46443;59.792;17.626;2023-04-24T08:41:58;4.10;;;2.22;;
60612;SDS011;46443;59.792;17.626;2023-04-24T08:44:31;3.90;;;2.60;;
60612;SDS011;46443;59.792;17.626;2023-04-24T08:46:57;5.57;;;2.75;;
60612;SDS011;46443;59.792;17.626;2023-04-24T08:49:24;5.38;;;2.50;;
60612;SDS011;46443;59.792;17.626;2023-04-24T08:51:52;4.10;;;2.47;;
60612;SDS011;46443;59.792;17.626;2023-04-24T08:54:18;4.30;;;2.40;;
60612;SDS011;46443;59.792;17.626;2023-04-24T08:56:44;5.10;;;2.33;;
60612;SDS011;46443;59.792;17.626;2023-04-24T08:59:10;4.25;;;2.42;;
60612;SDS011;46443;59.792;17.626;2023-04-24T09:01:37;5.13;;;2.40;;
60612;SDS011;46443;59.792;17.626;2023-04-24T09:04:04;4.75;;;2.30;;
60612;SDS011;46443;59.792;17.626;2023-04-24T09:06:32;4.10;;;2.53;;
60612;SDS011;46443;59.792;17.626;2023-04-24T09:09:00;4.28;;;2.70;;
60612;SDS011;46443;59.792;17.626;2023-04-24T09:11:26;4.20;;;2.63;;
60612;SDS011;46443;59.792;17.626;2023-04-24T09:13:56;6.72;;;3.00;;
60612;SDS011;46443;59.792;17.626;2023-04-24T09:18:49;4.10;;;2.60;;
60612;SDS011;46443;59.792;17.626;2023-04-24T09:21:15;4.30;;;2.50;;
60612;SDS011;46443;59.792;17.626;2023-04-24T09:23:41;3.47;;;2.17;;
60612;SDS011;46443;59.792;17.626;2023-04-24T09:26:08;5.40;;;2.50;;
60612;SDS011;46443;59.792;17.626;2023-04-24T09:28:38;4.60;;;2.38;;
60612;SDS011;46443;59.792;17.626;2023-04-24T09:31:22;3.05;;;2.10;;
60612;SDS011;46443;59.792;17.626;2023-04-24T09:33:56;4.75;;;2.60;;
60612;SDS011;46443;59.792;17.626;2023-04-24T09:36:29;3.78;;;2.38;;
60612;SDS011;46443;59.792;17.626;2023-04-24T09:38:58;3.88;;;2.42;;
60612;SDS011;46443;59.792;17.626;2023-04-24T09:41:24;5.35;;;2.40;;
60612;SDS011;46443;59.792;17.626;2023-04-24T09:43:53;4.05;;;2.60;;
60612;SDS011;46443;59.792;17.626;2023-04-24T09:46:19;4.60;;;2.58;;
60612;SDS011;46443;59.792;17.626;2023-04-24T09:48:46;4.40;;;2.47;;
60612;SDS011;46443;59.792;17.626;2023-04-24T09:51:12;5.35;;;2.60;;
60612;SDS011;46443;59.792;17.626;2023-04-24T09:53:44;4.70;;;2.80;;
60612;SDS011;46443;59.792;17.626;2023-04-24T09:56:11;4.40;;;2.60;;
60612;SDS011;46443;59.792;17.626;2023-04-24T09:58:38;6.27;;;2.80;;
60612;SDS011;46443;59.792;17.626;2023-04-24T10:01:04;3.65;;;2.55;;
60612;SDS011;46443;59.792;17.626;2023-04-24T10:03:31;5.27;;;2.60;;
60612;SDS011;46443;59.792;17.626;2023-04-24T10:05:58;3.13;;;2.30;;
60612;SDS011;46443;59.792;17.626;2023-04-24T10:08:24;4.18;;;2.92;;
60612;SDS011;46443;59.792;17.626;2023-04-24T10:10:51;4.30;;;2.43;;
60612;SDS011;46443;59.792;17.626;2023-04-24T10:13:18;5.38;;;3.10;;
60612;SDS011;46443;59.792;17.626;2023-04-24T10:15:44;4.82;;;2.92;;
60612;SDS011;46443;59.792;17.626;2023-04-24T10:18:10;3.73;;;2.60;;
60612;SDS011;46443;59.792;17.626;2023-04-24T10:20:37;4.83;;;2.80;;
60612;SDS011;46443;59.792;17.626;2023-04-24T10:23:04;5.50;;;3.20;;
60612;SDS011;46443;59.792;17.626;2023-04-24T10:25:31;4.70;;;2.60;;
60612;SDS011;46443;59.792;17.626;2023-04-24T10:27:58;4.97;;;3.00;;
60612;SDS011;46443;59.792;17.626;2023-04-24T10:30:25;4.50;;;2.80;;
60612;SDS011;46443;59.792;17.626;2023-04-24T10:32:51;5.25;;;2.65;;
60612;SDS011;46443;59.792;17.626;2023-04-24T10:35:18;4.78;;;3.20;;
60612;SDS011;46443;59.792;17.626;2023-04-24T10:37:51;4.38;;;2.70;;
60612;SDS011;46443;59.792;17.626;2023-04-24T10:40:25;4.50;;;2.85;;
60612;SDS011;46443;59.792;17.626;2023-04-24T10:42:51;4.83;;;2.63;;
60612;SDS011;46443;59.792;17.626;2023-04-24T10:45:21;4.78;;;3.00;;
60612;SDS011;46443;59.792;17.626;2023-04-24T10:47:53;4.53;;;2.90;;
60612;SDS011;46443;59.792;17.626;2023-04-24T10:50:22;4.93;;;3.00;;
60612;SDS011;46443;59.792;17.626;2023-04-24T10:52:48;4.63;;;2.80;;
60612;SDS011;46443;59.792;17.626;2023-04-24T10:58:04;4.33;;;2.90;;
60612;SDS011;46443;59.792;17.626;2023-04-24T11:00:30;5.05;;;3.00;;
60612;SDS011;46443;59.792;17.626;2023-04-24T11:02:57;4.68;;;2.90;;
60612;SDS011;46443;59.792;17.626;2023-04-24T11:05:48;4.83;;;3.47;;
60612;SDS011;46443;59.792;17.626;2023-04-24T11:08:15;5.25;;;3.05;;
60612;SDS011;46443;59.792;17.626;2023-04-24T11:13:10;4.60;;;2.88;;
60612;SDS011;46443;59.792;17.626;2023-04-24T11:15:36;5.25;;;2.97;;
60612;SDS011;46443;59.792;17.626;2023-04-24T11:18:02;5.93;;;3.20;;
60612;SDS011;46443;59.792;17.626;2023-04-24T11:20:28;4.47;;;2.90;;
60612;SDS011;46443;59.792;17.626;2023-04-24T11:22:55;5.82;;;3.47;;
60612;SDS011;46443;59.792;17.626;2023-04-24T11:25:22;4.47;;;2.88;;
60612;SDS011;46443;59.792;17.626;2023-04-24T11:27:49;6.10;;;3.30;;
60612;SDS011;46443;59.792;17.626;2023-04-24T11:30:19;5.57;;;3.17;;
60612;SDS011;46443;59.792;17.626;2023-04-24T11:32:50;5.03;;;3.08;;
60612;SDS011;46443;59.792;17.626;2023-04-24T11:35:22;5.27;;;2.93;;
60612;SDS011;46443;59.792;17.626;2023-04-24T11:37:50;4.67;;;3.03;;
60612;SDS011;46443;59.792;17.626;2023-04-24T11:40:18;5.75;;;3.35;;
60612;SDS011;46443;59.792;17.626;2023-04-24T11:42:46;5.25;;;2.95;;
60612;SDS011;46443;59.792;17.626;2023-04-24T11:45:20;5.50;;;3.10;;
60612;SDS011;46443;59.792;17.626;2023-04-24T11:47:46;6.18;;;3.22;;
60612;SDS011;46443;59.792;17.626;2023-04-24T11:50:16;7.13;;;2.83;;
60612;SDS011;46443;59.792;17.626;2023-04-24T11:52:43;6.88;;;3.08;;
60612;SDS011;46443;59.792;17.626;2023-04-24T11:57:45;4.20;;;2.83;;
60612;SDS011;46443;59.792;17.626;2023-04-24T12:02:37;5.10;;;2.80;;
60612;SDS011;46443;59.792;17.626;2023-04-24T12:05:03;4.85;;;2.75;;
60612;SDS011;46443;59.792;17.626;2023-04-24T12:07:29;6.35;;;2.83;;
60612;SDS011;46443;59.792;17.626;2023-04-24T12:09:59;5.00;;;2.73;;
60612;SDS011;46443;59.792;17.626;2023-04-24T12:12:25;4.32;;;2.83;;
60612;SDS011;46443;59.792;17.626;2023-04-24T12:14:52;4.77;;;3.00;;
60612;SDS011;46443;59.792;17.626;2023-04-24T12:17:23;4.90;;;3.03;;
60612;SDS011;46443;59.792;17.626;2023-04-24T12:19:50;5.05;;;2.63;;
60612;SDS011;46443;59.792;17.626;2023-04-24T12:22:16;5.17;;;3.23;;
60612;SDS011;46443;59.792;17.626;2023-04-24T12:25:01;4.78;;;2.80;;
60612;SDS011;46443;59.792;17.626;2023-04-24T12:27:29;5.30;;;3.10;;
60612;SDS011;46443;59.792;17.626;2023-04-24T12:29:57;5.28;;;3.08;;
60612;SDS011;46443;59.792;17.626;2023-04-24T12:32:23;5.10;;;3.13;;
60612;SDS011;46443;59.792;17.626;2023-04-24T12:34:50;5.37;;;3.07;;
60612;SDS011;46443;59.792;17.626;2023-04-24T12:37:17;6.40;;;3.00;;
60612;SDS011;46443;59.792;17.626;2023-04-24T12:39:59;4.27;;;2.70;;
60612;SDS011;46443;59.792;17.626;2023-04-24T12:42:29;3.97;;;2.70;;
60612;SDS011;46443;59.792;17.626;2023-04-24T12:44:56;4.70;;;2.93;;
60612;SDS011;46443;59.792;17.626;2023-04-24T12:47:24;8.60;;;3.17;;
60612;SDS011;46443;59.792;17.626;2023-04-24T12:49:50;5.17;;;3.30;;
60612;SDS011;46443;59.792;17.626;2023-04-24T12:52:17;5.40;;;2.83;;
60612;SDS011;46443;59.792;17.626;2023-04-24T12:54:45;5.17;;;2.93;;
60612;SDS011;46443;59.792;17.626;2023-04-24T12:57:11;5.37;;;2.97;;
60612;SDS011;46443;59.792;17.626;2023-04-24T12:59:37;6.30;;;3.13;;
60612;SDS011;46443;59.792;17.626;2023-04-24T13:02:04;4.87;;;3.00;;
60612;SDS011;46443;59.792;17.626;2023-04-24T13:04:30;5.70;;;3.08;;
60612;SDS011;46443;59.792;17.626;2023-04-24T13:06:57;6.03;;;3.07;;
60612;SDS011;46443;59.792;17.626;2023-04-24T13:09:23;4.50;;;3.00;;
60612;SDS011;46443;59.792;17.626;2023-04-24T13:11:49;5.93;;;3.20;;
60612;SDS011;46443;59.792;17.626;2023-04-24T13:14:15;6.33;;;3.20;;
60612;SDS011;46443;59.792;17.626;2023-04-24T13:16:41;4.60;;;2.80;;
60612;SDS011;46443;59.792;17.626;2023-04-24T13:19:07;5.30;;;3.03;;
60612;SDS011;46443;59.792;17.626;2023-04-24T13:21:34;5.13;;;2.83;;
60612;SDS011;46443;59.792;17.626;2023-04-24T13:24:00;4.87;;;2.90;;
60612;SDS011;46443;59.792;17.626;2023-04-24T13:26:26;5.97;;;3.10;;
60612;SDS011;46443;59.792;17.626;2023-04-24T13:28:52;6.53;;;3.40;;
60612;SDS011;46443;59.792;17.626;2023-04-24T13:31:18;5.77;;;3.30;;
60612;SDS011;46443;59.792;17.626;2023-04-24T13:33:44;5.30;;;3.03;;
60612;SDS011;46443;59.792;17.626;2023-04-24T13:36:10;5.23;;;2.87;;
60612;SDS011;46443;59.792;17.626;2023-04-24T13:38:36;5.77;;;3.43;;
60612;SDS011;46443;59.792;17.626;2023-04-24T13:41:02;4.63;;;2.95;;
60612;SDS011;46443;59.792;17.626;2023-04-24T13:43:28;4.77;;;3.30;;
60612;SDS011;46443;59.792;17.626;2023-04-24T13:45:54;4.87;;;3.20;;
60612;SDS011;46443;59.792;17.626;2023-04-24T13:48:21;6.53;;;3.40;;
60612;SDS011;46443;59.792;17.626;2023-04-24T13:50:47;4.87;;;3.30;;
60612;SDS011;46443;59.792;17.626;2023-04-24T13:53:14;6.20;;;3.07;;
60612;SDS011;46443;59.792;17.626;2023-04-24T13:55:40;5.77;;;3.33;;
60612;SDS011;46443;59.792;17.626;2023-04-24T13:58:06;5.80;;;3.30;;
60612;SDS011;46443;59.792;17.626;2023-04-24T14:00:32;5.87;;;3.43;;
60612;SDS011;46443;59.792;17.626;2023-04-24T14:02:59;5.93;;;3.50;;
60612;SDS011;46443;59.792;17.626;2023-04-24T14:05:25;5.43;;;3.70;;
60612;SDS011;46443;59.792;17.626;2023-04-24T14:07:51;5.63;;;3.60;;
60612;SDS011;46443;59.792;17.626;2023-04-24T14:10:17;5.07;;;3.10;;
60612;SDS011;46443;59.792;17.626;2023-04-24T14:12:44;5.13;;;3.40;;
60612;SDS011;46443;59.792;17.626;2023-04-24T14:15:10;4.97;;;2.90;;
60612;SDS011;46443;59.792;17.626;2023-04-24T14:17:38;5.53;;;3.37;;
60612;SDS011;46443;59.792;17.626;2023-04-24T14:20:04;6.57;;;3.10;;
60612;SDS011;46443;59.792;17.626;2023-04-24T14:22:32;5.57;;;3.30;;
60612;SDS011;46443;59.792;17.626;2023-04-24T14:24:58;5.27;;;3.30;;
60612;SDS011;46443;59.792;17.626;2023-04-24T14:27:24;6.80;;;3.33;;
60612;SDS011;46443;59.792;17.626;2023-04-24T14:29:50;5.53;;;3.05;;
60612;SDS011;46443;59.792;17.626;2023-04-24T14:32:16;6.00;;;3.27;;
60612;SDS011;46443;59.792;17.626;2023-04-24T14:34:42;6.23;;;3.50;;
60612;SDS011;46443;59.792;17.626;2023-04-24T14:37:09;7.85;;;3.70;;
60612;SDS011;46443;59.792;17.626;2023-04-24T14:39:35;6.85;;;3.92;;
60612;SDS011;46443;59.792;17.626;2023-04-24T14:42:01;7.13;;;3.47;;
60612;SDS011;46443;59.792;17.626;2023-04-24T14:44:27;6.03;;;3.33;;
60612;SDS011;46443;59.792;17.626;2023-04-24T14:46:53;6.57;;;3.50;;